Time;durP1;ratioP1;P1;durP2;ratioP2;P2;SDS_P1;SDS_P2;PMS_P1;PMS_P2;Temp;Humidity;BMP_temperature;BMP_pressure;BME280_temperature;BME280_humidity;BME280_pressure;Samples;Min_cycle;Max_cycle;Signal;HPM_P1;HPM_P2
2022/09/13 00:00:36;;;;;;;;;;;;;;;19.76;60.52;100859.47;5069695;28;19921;-77
2022/09/13 00:03:02;;;;;;;;;;;;;;;19.78;60.52;100860.16;5065857;28;19962;-77
2022/09/13 00:05:28;;;;;;;;;;;;;;;19.79;60.65;100858.31;5072324;28;19957;-77
2022/09/13 00:07:55;;;;;;;;;;;;;;;19.81;62.68;100859.00;5071853;28;19918;-77
2022/09/13 00:10:21;;;;;;;;;;;;;;;19.78;60.87;100854.78;5081506;28;20362;-77
2022/09/13 00:12:47;;;;;;;;;;;;;;;19.80;60.65;100866.28;5072581;28;20006;-77
2022/09/13 00:15:12;;;;;;;;;;;;;;;19.80;60.90;100865.44;5075873;28;19916;-77
2022/09/13 00:17:37;;;;;;;;;;;;;;;19.77;61.14;100857.66;5073661;28;19999;-77
2022/09/13 00:20:03;;;;;;;;;;;;;;;19.72;61.48;100856.25;5060792;28;19913;-77
2022/09/13 00:22:28;;;;;;;;;;;;;;;19.66;60.93;100845.22;5066341;28;19965;-77
2022/09/13 00:24:56;;;;;;;;;;;;;;;19.64;61.63;100842.66;5104460;28;19935;-77
2022/09/13 00:27:21;;;;;;;;;;;;;;;19.62;61.41;100841.97;5073040;28;19935;-77
2022/09/13 00:29:46;;;;;;;;;;;;;;;19.60;61.38;100841.28;5072462;28;20374;-77
2022/09/13 00:32:12;;;;;;;;;;;;;;;19.60;62.54;100845.81;5074470;28;19974;-77
2022/09/13 00:34:37;;;;;;;;;;;;;;;19.57;62.40;100840.75;5072300;28;20342;-77
2022/09/13 00:37:03;;;;;;;;;;;;;;;19.56;62.21;100839.03;5073078;28;19912;-77
2022/09/13 00:39:29;;;;;;;;;;;;;;;19.55;61.77;100838.19;5071866;28;20007;-77
2022/09/13 00:41:54;;;;;;;;;;;;;;;19.52;61.97;100833.94;5074937;28;20426;-77
2022/09/13 00:44:39;;;;;;;;;;;;;;;19.53;62.02;100829.41;5068517;28;19920;-77
2022/09/13 00:47:05;;;;;;;;;;;;;;;19.49;62.06;100831.56;5053532;28;20272;-77
2022/09/13 00:49:35;;;;;;;;;;;;;;;19.48;61.95;100821.78;5073339;28;19919;-77
2022/09/13 00:52:04;;;;;;;;;;;;;;;19.48;61.47;100829.03;5081732;28;19987;-77
2022/09/13 00:54:32;;;;;;;;;;;;;;;19.45;62.50;100822.09;5075315;28;19993;-77
2022/09/13 00:57:00;;;;;;;;;;;;;;;19.45;62.44;100822.09;5072531;28;19996;-77
2022/09/13 00:59:29;;;;;;;;;;;;;;;19.46;61.78;100812.13;5072507;28;20334;-77
2022/09/13 01:01:57;;;;;;;;;;;;;;;19.42;62.14;100810.78;5071797;28;19958;-77
2022/09/13 01:04:24;;;;;;;;;;;;;;;19.39;61.93;100813.78;5073457;28;20286;-77
2022/09/13 01:06:52;;;;;;;;;;;;;;;19.39;62.47;100814.63;5090853;28;19908;-77
2022/09/13 01:09:17;;;;;;;;;;;;;;;19.37;63.14;100818.47;5078410;28;20374;-77
2022/09/13 01:11:49;;;;;;;;;;;;;;;19.33;62.79;100815.25;5089903;28;19966;-77
2022/09/13 01:14:18;;;;;;;;;;;;;;;19.34;63.49;100814.22;5078187;28;19917;-77
2022/09/13 01:16:43;;;;;;;;;;;;;;;19.34;63.05;100813.38;5077880;28;20424;-77
2022/09/13 01:19:09;;;;;;;;;;;;;;;19.31;62.04;100805.59;5072104;28;19912;-77
2022/09/13 01:21:52;;;;;;;;;;;;;;;19.28;62.78;100804.91;5072698;28;19923;-77
2022/09/13 01:24:38;;;;;;;;;;;;;;;19.30;63.39;100812.84;5071830;28;19920;-77
2022/09/13 01:27:06;;;;;;;;;;;;;;;19.26;63.65;100801.50;5029252;28;20291;-77
2022/09/13 01:29:46;;;;;;;;;;;;;;;19.26;62.97;100804.19;5055439;28;19912;-77
2022/09/13 01:32:32;;;;;;;;;;;;;;;19.26;62.56;100806.06;5076748;28;20428;-77
2022/09/13 01:35:17;;;;;;;;;;;;;;;19.26;63.44;100804.19;5063182;28;19912;-77
2022/09/13 01:37:45;;;;;;;;;;;;;;;19.24;62.51;100803.53;5070818;28;19912;-77
2022/09/13 01:40:28;;;;;;;;;;;;;;;19.26;63.40;100804.19;5072710;28;19917;-77
2022/09/13 01:42:59;;;;;;;;;;;;;;;19.27;63.39;100800.53;5073173;28;19912;-77
2022/09/13 01:45:33;;;;;;;;;;;;;;;19.26;62.19;100806.91;5072479;28;19908;-77
2022/09/13 01:48:09;;;;;;;;;;;;;;;19.28;62.25;100802.22;5072562;28;19954;-77
2022/09/13 01:50:38;;;;;;;;;;;;;;;19.34;62.58;100797.19;5079355;28;19942;-77
2022/09/13 01:53:17;;;;;;;;;;;;;;;19.36;62.72;100795.22;5091081;28;19911;-77
2022/09/13 01:55:49;;;;;;;;;;;;;;;19.38;62.06;100793.19;5089771;28;19912;-77
2022/09/13 01:58:35;;;;;;;;;;;;;;;19.36;62.61;100790.66;5070753;28;19919;-77
2022/09/13 02:01:02;;;;;;;;;;;;;;;19.38;62.25;100785.94;5062533;28;19935;-77
2022/09/13 02:03:36;;;;;;;;;;;;;;;19.40;62.58;100793.88;5071529;28;19912;-77
2022/09/13 02:06:05;;;;;;;;;;;;;;;19.41;62.63;100798.25;5070717;28;19908;-77
2022/09/13 02:08:39;;;;;;;;;;;;;;;19.42;62.92;100794.59;5070304;28;19920;-77
2022/09/13 02:11:12;;;;;;;;;;;;;;;19.37;62.61;100791.50;5077870;28;19957;-77
2022/09/13 02:13:50;;;;;;;;;;;;;;;19.33;62.82;100796.38;5075770;28;19913;-77
2022/09/13 02:16:19;;;;;;;;;;;;;;;19.31;63.22;100798.34;5076465;28;19920;-77
2022/09/13 02:18:51;;;;;;;;;;;;;;;19.30;63.17;100796.66;5072490;28;20275;-77
2022/09/13 02:21:22;;;;;;;;;;;;;;;19.27;63.43;100797.81;5075342;28;20022;-77
2022/09/13 02:23:50;;;;;;;;;;;;;;;19.25;64.90;100790.88;5074562;28;19916;-77
2022/09/13 02:26:19;;;;;;;;;;;;;;;19.20;64.54;100798.59;5065928;28;19938;-77
2022/09/13 02:28:50;;;;;;;;;;;;;;;19.19;63.67;100796.91;5075732;28;19919;-77
2022/09/13 02:31:18;;;;;;;;;;;;;;;19.20;64.14;100799.44;5079008;28;19912;-77
2022/09/13 02:33:46;;;;;;;;;;;;;;;19.20;63.87;100804.81;5071262;28;19913;-77
2022/09/13 02:36:16;;;;;;;;;;;;;;;19.21;65.87;100803.00;5064238;28;19916;-77
2022/09/13 02:38:44;;;;;;;;;;;;;;;19.18;64.57;100809.53;5076203;28;19912;-77
2022/09/13 02:41:17;;;;;;;;;;;;;;;19.15;64.17;100814.38;5074452;28;19916;-77
2022/09/13 02:43:48;;;;;;;;;;;;;;;19.14;63.83;100815.38;5076689;28;19963;-77
2022/09/13 02:46:24;;;;;;;;;;;;;;;19.17;65.09;100820.47;5076997;28;20441;-77
2022/09/13 02:49:18;;;;;;;;;;;;;;;19.16;64.43;100826.88;5074043;28;20382;-77
2022/09/13 02:51:48;;;;;;;;;;;;;;;19.11;65.92;100818.38;5061919;28;19909;-77
2022/09/13 02:54:22;;;;;;;;;;;;;;;19.05;66.14;100815.28;5076398;28;19913;-77
2022/09/13 02:56:53;;;;;;;;;;;;;;;19.00;65.60;100814.03;5076161;28;19912;-77
2022/09/13 02:59:20;;;;;;;;;;;;;;;18.97;66.14;100825.13;5075140;28;20018;-77
2022/09/13 03:01:56;;;;;;;;;;;;;;;18.96;65.72;100821.59;5070390;28;20358;-77
2022/09/13 03:04:22;;;;;;;;;;;;;;;18.93;66.49;100815.66;5073693;28;19912;-77
2022/09/13 03:06:48;;;;;;;;;;;;;;;18.90;66.95;100815.97;5074579;28;19920;-77
2022/09/13 03:09:13;;;;;;;;;;;;;;;18.89;67.01;100817.81;5073141;28;20271;-77
2022/09/13 03:11:57;;;;;;;;;;;;;;;18.90;66.60;100813.28;5073150;28;19919;-77
2022/09/13 03:14:22;;;;;;;;;;;;;;;18.90;66.61;100818.66;5072418;28;20337;-77
2022/09/13 03:16:54;;;;;;;;;;;;;;;18.92;65.93;100808.59;5076969;28;19912;-77
2022/09/13 03:19:23;;;;;;;;;;;;;;;18.93;66.16;100808.44;5073282;28;19912;-77
2022/09/13 03:21:57;;;;;;;;;;;;;;;18.92;65.94;100800.50;5073681;28;19938;-77
2022/09/13 03:24:31;;;;;;;;;;;;;;;18.91;66.69;100814.97;5106910;28;20430;-77
2022/09/13 03:27:15;;;;;;;;;;;;;;;18.89;66.39;100803.50;5090569;28;20402;-77
2022/09/13 03:29:53;;;;;;;;;;;;;;;18.90;67.12;100805.19;5073616;28;19924;-77
2022/09/13 03:32:18;;;;;;;;;;;;;;;18.88;66.37;100797.25;5073314;28;19950;-77
2022/09/13 03:34:46;;;;;;;;;;;;;;;18.90;65.77;100810.59;5074171;28;19940;-77
2022/09/13 03:37:32;;;;;;;;;;;;;;;18.91;66.92;100804.19;5073905;28;20017;-77
2022/09/13 03:40:15;;;;;;;;;;;;;;;18.91;66.13;100799.63;5074204;28;19913;-77
2022/09/13 03:42:47;;;;;;;;;;;;;;;18.89;66.38;100803.50;5073662;28;19923;-77
2022/09/13 03:45:13;;;;;;;;;;;;;;;18.87;66.47;100805.50;5073514;28;19912;-77
2022/09/13 03:47:41;;;;;;;;;;;;;;;18.88;66.16;100804.50;5076551;28;20370;-77
2022/09/13 03:50:07;;;;;;;;;;;;;;;18.88;66.68;100807.19;5072691;28;19957;-77
2022/09/13 03:52:32;;;;;;;;;;;;;;;18.87;66.24;100802.81;5071731;28;19923;-77
2022/09/13 03:54:58;;;;;;;;;;;;;;;18.84;67.04;100794.00;5074065;28;19908;-77
2022/09/13 03:57:26;;;;;;;;;;;;;;;18.83;66.59;100791.50;5072835;28;19909;-77
2022/09/13 03:59:55;;;;;;;;;;;;;;;18.82;67.05;100792.47;5072541;28;19916;-77
2022/09/13 04:02:22;;;;;;;;;;;;;;;18.82;67.08;100796.03;5086399;28;19917;-77
2022/09/13 04:04:47;;;;;;;;;;;;;;;18.81;67.41;100796.16;5073835;28;19920;-77
2022/09/13 04:07:17;;;;;;;;;;;;;;;18.80;67.87;100797.19;5072454;28;19908;-77
2022/09/13 04:09:43;;;;;;;;;;;;;;;18.79;66.89;100801.69;5073480;28;20035;-77
2022/09/13 04:12:10;;;;;;;;;;;;;;;18.79;66.39;100804.38;5073865;28;20367;-77
2022/09/13 04:14:36;;;;;;;;;;;;;;;18.79;66.44;100809.78;5071625;28;20015;-77
2022/09/13 04:17:02;;;;;;;;;;;;;;;18.80;66.13;100821.44;5080728;28;20377;-77
2022/09/13 04:19:27;;;;;;;;;;;;;;;18.80;67.10;100821.44;5076326;28;19919;-77
2022/09/13 04:21:53;;;;;;;;;;;;;;;18.79;66.42;100814.31;5071230;28;20317;-77
2022/09/13 04:24:19;;;;;;;;;;;;;;;18.78;67.48;100820.72;5072139;28;19912;-77
2022/09/13 04:26:47;;;;;;;;;;;;;;;18.73;68.07;100821.16;5072011;28;19947;-77
2022/09/13 04:29:13;;;;;;;;;;;;;;;18.69;66.26;100829.69;5075599;28;19938;-77
2022/09/13 04:31:38;;;;;;;;;;;;;;;18.69;66.90;100824.28;5077496;28;19912;-77
2022/09/13 04:34:04;;;;;;;;;;;;;;;18.66;66.99;100828.13;5077974;28;20313;-77
2022/09/13 04:36:30;;;;;;;;;;;;;;;18.63;66.66;100831.13;5092147;28;19908;-77
2022/09/13 04:38:59;;;;;;;;;;;;;;;18.61;66.39;100842.03;5081718;28;19999;-77
2022/09/13 04:41:24;;;;;;;;;;;;;;;18.62;66.32;100853.69;5072255;28;19916;-77
2022/09/13 04:43:52;;;;;;;;;;;;;;;18.60;66.92;100837.66;5105672;28;20374;-77
2022/09/13 04:46:17;;;;;;;;;;;;;;;18.55;66.57;100845.31;5074350;28;19956;-77
2022/09/13 04:48:47;;;;;;;;;;;;;;;18.51;66.76;100849.31;5072498;28;19990;-77
2022/09/13 04:51:13;;;;;;;;;;;;;;;18.48;65.63;100855.00;5074237;28;19912;-77
2022/09/13 04:53:38;;;;;;;;;;;;;;;18.46;66.37;100850.75;5071288;28;19955;-77
2022/09/13 04:56:04;;;;;;;;;;;;;;;18.41;67.06;100835.03;5071975;28;20443;-77
2022/09/13 04:58:30;;;;;;;;;;;;;;;18.40;67.52;100846.81;5072245;28;20263;-77
2022/09/13 05:01:08;;;;;;;;;;;;;;;18.35;66.63;100844.59;5086644;28;19916;-77
2022/09/13 05:03:33;;;;;;;;;;;;;;;18.34;67.58;100848.25;5079739;28;19916;-77
2022/09/13 05:06:02;;;;;;;;;;;;;;;18.32;67.27;100844.00;5072541;28;19912;-77
2022/09/13 05:08:27;;;;;;;;;;;;;;;18.31;67.70;100839.63;5072373;28;19948;-77
2022/09/13 05:10:52;;;;;;;;;;;;;;;18.29;67.40;100836.22;5071655;28;19952;-77
2022/09/13 05:13:18;;;;;;;;;;;;;;;18.31;68.21;100845.00;5074004;28;19934;-77
2022/09/13 05:15:43;;;;;;;;;;;;;;;18.32;67.46;100839.50;5072957;28;19921;-77
2022/09/13 05:18:08;;;;;;;;;;;;;;;18.34;67.93;100840.16;5107929;28;19957;-77
2022/09/13 05:20:34;;;;;;;;;;;;;;;18.35;68.21;100839.19;5076377;28;19908;-77
2022/09/13 05:22:59;;;;;;;;;;;;;;;18.36;67.56;100843.56;5068858;28;20023;-77
2022/09/13 05:25:27;;;;;;;;;;;;;;;18.38;67.29;100843.41;5071055;28;19923;-77
2022/09/13 05:27:52;;;;;;;;;;;;;;;18.39;67.42;100847.81;5072110;28;19922;-77
2022/09/13 05:30:17;;;;;;;;;;;;;;;18.41;67.50;100848.50;5072240;28;20294;-77
2022/09/13 05:32:43;;;;;;;;;;;;;;;18.43;67.61;100851.91;5084675;28;19919;-77
2022/09/13 05:35:08;;;;;;;;;;;;;;;18.45;67.99;100854.47;5072639;28;19999;-77
2022/09/13 05:37:33;;;;;;;;;;;;;;;18.45;67.87;100852.63;5066902;28;19920;-77
2022/09/13 05:40:01;;;;;;;;;;;;;;;18.45;67.98;100851.78;5077397;28;19947;-77
2022/09/13 05:42:26;;;;;;;;;;;;;;;18.46;67.50;100858.84;5067845;28;20019;-77
2022/09/13 05:44:51;;;;;;;;;;;;;;;18.48;67.51;100862.25;5063840;28;19963;-77
2022/09/13 05:47:17;;;;;;;;;;;;;;;18.49;68.20;100869.31;5057397;28;19912;-77
2022/09/13 05:49:42;;;;;;;;;;;;;;;18.48;68.11;100852.31;5057703;28;19917;-77
2022/09/13 05:52:07;;;;;;;;;;;;;;;18.48;67.93;100854.16;5068311;28;20369;-77
2022/09/13 05:54:33;;;;;;;;;;;;;;;18.48;68.16;100849.63;5072778;28;19908;-77
2022/09/13 05:56:58;;;;;;;;;;;;;;;18.50;67.91;100852.16;5104676;28;19908;-77
2022/09/13 05:59:23;;;;;;;;;;;;;;;18.51;67.83;100854.72;5089901;28;19961;-77
2022/09/13 06:01:49;;;;;;;;;;;;;;;18.52;68.15;100855.56;5089154;28;19962;-77
2022/09/13 06:04:14;;;;;;;;;;;;;;;18.52;68.47;100863.63;5091325;28;19914;-77
2022/09/13 06:06:39;;;;;;;;;;;;;;;18.51;68.05;100854.72;5089953;28;20273;-78
2022/09/13 06:09:07;;;;;;;;;;;;;;;18.55;68.32;100860.66;5091828;28;19908;-77
2022/09/13 06:11:32;;;;;;;;;;;;;;;18.54;67.95;100858.97;5071766;28;19915;-77
2022/09/13 06:13:58;;;;;;;;;;;;;;;18.53;68.56;100849.16;5105136;28;20007;-77
2022/09/13 06:16:23;;;;;;;;;;;;;;;18.53;68.88;100850.03;5103590;28;19927;-77
2022/09/13 06:18:48;;;;;;;;;;;;;;;18.52;69.35;100853.72;5074846;28;19916;-77
2022/09/13 06:21:16;;;;;;;;;;;;;;;18.53;69.49;100855.44;5071028;28;19920;-77
2022/09/13 06:23:49;;;;;;;;;;;;;;;18.56;69.19;100851.56;5070913;28;20286;-77
2022/09/13 06:26:15;;;;;;;;;;;;;;;18.60;69.19;100848.44;5074112;28;19919;-78
2022/09/13 06:28:41;;;;;;;;;;;;;;;18.63;68.75;100849.13;5074208;28;19919;-78
2022/09/13 06:31:08;;;;;;;;;;;;;;;18.68;69.25;100845.00;5071542;28;19909;-78
2022/09/13 06:33:36;;;;;;;;;;;;;;;18.72;68.76;100846.41;5071139;28;19958;-78
2022/09/13 06:36:02;;;;;;;;;;;;;;;18.73;69.29;100844.53;5071679;28;19947;-78
2022/09/13 06:38:27;;;;;;;;;;;;;;;18.75;69.50;100840.72;5070659;28;19916;-78
2022/09/13 06:41:03;;;;;;;;;;;;;;;18.78;69.01;100835.03;5070996;28;20332;-78
2022/09/13 06:43:28;;;;;;;;;;;;;;;18.82;69.46;100839.16;5070406;28;19923;-78
2022/09/13 06:45:57;;;;;;;;;;;;;;;18.84;69.95;100838.97;5071908;28;19933;-77
2022/09/13 06:48:23;;;;;;;;;;;;;;;18.89;70.31;100841.25;5071086;28;19913;-77
2022/09/13 06:50:48;;;;;;;;;;;;;;;18.90;70.31;100846.47;5071180;28;19913;-77
2022/09/13 06:53:14;;;;;;;;;;;;;;;18.93;69.37;100856.09;5092119;28;19951;-77
2022/09/13 06:55:39;;;;;;;;;;;;;;;18.97;71.09;100861.06;5089915;28;19923;-77
2022/09/13 06:58:05;;;;;;;;;;;;;;;19.00;70.30;100849.09;5071869;28;20453;-77
2022/09/13 07:00:30;;;;;;;;;;;;;;;19.04;70.34;100853.19;5073309;28;19908;-77
2022/09/13 07:02:56;;;;;;;;;;;;;;;19.08;69.90;100854.59;5087215;28;19917;-76
2022/09/13 07:05:23;;;;;;;;;;;;;;;19.12;69.62;100849.72;5073982;28;19912;-77
2022/09/13 07:07:49;;;;;;;;;;;;;;;19.15;68.93;100853.00;5100558;28;19908;-77
2022/09/13 07:10:16;;;;;;;;;;;;;;;19.19;68.69;100854.38;5073318;28;20294;-77
2022/09/13 07:12:42;;;;;;;;;;;;;;;19.26;69.32;100855.44;5080472;28;19919;-77
2022/09/13 07:15:08;;;;;;;;;;;;;;;19.31;69.15;100854.16;5074291;28;19924;-77
2022/09/13 07:17:33;;;;;;;;;;;;;;;19.35;69.13;100848.28;5107929;28;19999;-77
2022/09/13 07:19:58;;;;;;;;;;;;;;;19.42;68.77;100851.22;5077077;28;19931;-77
2022/09/13 07:22:26;;;;;;;;;;;;;;;19.47;68.26;100844.38;5098301;28;20058;-76
2022/09/13 07:24:52;;;;;;;;;;;;;;;19.52;67.74;100849.28;5100895;28;19908;-77
2022/09/13 07:27:17;;;;;;;;;;;;;;;19.59;68.76;100863.00;5106924;28;19915;-77
2022/09/13 07:29:42;;;;;;;;;;;;;;;19.65;68.43;100862.44;5107072;28;19947;-77
2022/09/13 07:32:07;;;;;;;;;;;;;;;19.71;69.01;100865.34;5106619;28;20393;-77
2022/09/13 07:34:33;;;;;;;;;;;;;;;19.77;68.56;100871.13;5072980;28;20279;-77
2022/09/13 07:36:58;;;;;;;;;;;;;;;19.83;67.79;100862.41;5105431;28;19916;-77
2022/09/13 07:39:28;;;;;;;;;;;;;;;19.87;68.39;100870.03;5074761;28;20355;-76
2022/09/13 07:41:53;;;;;;;;;;;;;;;19.93;68.53;100869.41;5074616;28;19917;-77
2022/09/13 07:44:18;;;;;;;;;;;;;;;20.01;68.58;100874.03;5073086;28;19909;-77
2022/09/13 07:46:44;;;;;;;;;;;;;;;20.10;69.06;100869.53;5105643;28;19958;-76
2022/09/13 07:49:12;;;;;;;;;;;;;;;20.15;68.59;100880.72;5075311;28;20008;-77
2022/09/13 07:51:39;;;;;;;;;;;;;;;20.19;68.77;100872.13;5089372;28;19994;-77
2022/09/13 07:54:05;;;;;;;;;;;;;;;20.28;70.04;100870.31;5093508;28;19999;-77
2022/09/13 07:56:32;;;;;;;;;;;;;;;20.28;69.30;100873.00;5078672;28;20382;-77
2022/09/13 07:58:59;;;;;;;;;;;;;;;20.34;69.32;100877.78;5076999;28;19913;-77
2022/09/13 08:01:26;;;;;;;;;;;;;;;20.40;68.60;100882.53;5072148;28;19924;-77
2022/09/13 08:03:51;;;;;;;;;;;;;;;20.49;68.48;100886.13;5079904;28;19911;-77
2022/09/13 08:06:17;;;;;;;;;;;;;;;20.58;68.72;100885.19;5079129;28;20023;-77
2022/09/13 08:08:44;;;;;;;;;;;;;;;20.65;69.26;100885.44;5074085;28;19919;-77
2022/09/13 08:11:12;;;;;;;;;;;;;;;20.72;68.56;100888.31;5073305;28;19951;-77
2022/09/13 08:13:38;;;;;;;;;;;;;;;20.83;68.35;100880.78;5086960;28;19916;-77
2022/09/13 08:16:04;;;;;;;;;;;;;;;20.99;68.52;100884.53;5075534;28;20302;-77
2022/09/13 08:18:30;;;;;;;;;;;;;;;21.14;68.79;100887.47;5072694;28;20323;-77
2022/09/13 08:20:57;;;;;;;;;;;;;;;21.23;68.49;100884.59;5075391;28;19911;-77
2022/09/13 08:23:22;;;;;;;;;;;;;;;21.37;67.75;100880.44;5080422;28;20403;-77
2022/09/13 08:25:50;;;;;;;;;;;;;;;21.51;67.36;100882.50;5092063;28;19915;-77
2022/09/13 08:28:16;;;;;;;;;;;;;;;21.64;67.23;100884.69;5093750;28;19991;-77
2022/09/13 08:30:42;;;;;;;;;;;;;;;21.72;66.62;100890.13;5092597;28;19935;-77
2022/09/13 08:33:08;;;;;;;;;;;;;;;21.84;66.74;100898.75;5091987;28;20355;-77
2022/09/13 08:35:34;;;;;;;;;;;;;;;21.96;66.93;100897.41;5094042;28;19909;-77
2022/09/13 08:38:02;;;;;;;;;;;;;;;22.05;66.44;100902.81;5091932;28;20424;-77
2022/09/13 08:40:29;;;;;;;;;;;;;;;22.11;66.55;100908.41;5081600;28;19915;-77
2022/09/13 08:43:13;;;;;;;;;;;;;;;22.18;66.32;100904.03;5071925;28;19912;-77
2022/09/13 08:45:39;;;;;;;;;;;;;;;22.27;66.00;100904.03;5091262;28;19965;-77
2022/09/13 08:48:10;;;;;;;;;;;;;;;22.40;66.23;100907.03;5086108;28;19912;-77
2022/09/13 08:50:37;;;;;;;;;;;;;;;22.52;66.57;100912.94;5073602;28;19959;-77
2022/09/13 08:53:33;;;;;;;;;;;;;;;22.58;65.91;100904.94;5071492;28;19916;-77
2022/09/13 08:56:08;;;;;;;;;;;;;;;22.79;66.38;100895.41;5062600;28;19908;-77
2022/09/13 08:58:52;;;;;;;;;;;;;;;22.96;65.79;100896.22;5073228;28;19908;-77
2022/09/13 09:01:23;;;;;;;;;;;;;;;23.04;65.49;100894.31;5051445;28;19909;-77
2022/09/13 09:03:55;;;;;;;;;;;;;;;23.19;65.10;100888.13;5068302;28;20275;-77
2022/09/13 09:06:21;;;;;;;;;;;;;;;23.33;65.20;100890.09;5052590;28;19995;-76
2022/09/13 09:08:47;;;;;;;;;;;;;;;23.50;64.67;100882.66;5068375;28;20004;-77
2022/09/13 09:11:27;;;;;;;;;;;;;;;23.59;64.04;100878.88;5102121;28;19920;-77
2022/09/13 09:13:53;;;;;;;;;;;;;;;23.57;63.99;100880.94;5093008;28;19968;-77
2022/09/13 09:16:27;;;;;;;;;;;;;;;23.53;63.32;100879.56;5092630;28;20313;-77
2022/09/13 09:18:53;;;;;;;;;;;;;;;23.50;63.74;100878.09;5090870;28;19927;-77
2022/09/13 09:21:21;;;;;;;;;;;;;;;23.56;63.52;100871.09;5092588;28;19914;-77
2022/09/13 09:23:46;;;;;;;;;;;;;;;23.48;63.13;100852.16;5092419;28;19912;-77
2022/09/13 09:26:17;;;;;;;;;;;;;;;23.76;62.92;100874.19;5076479;28;19921;-77
2022/09/13 09:28:48;;;;;;;;;;;;;;;23.93;62.35;100880.31;5070757;28;19920;-77
2022/09/13 09:31:27;;;;;;;;;;;;;;;24.15;61.92;100878.56;5071046;28;19970;-76
2022/09/13 09:33:59;;;;;;;;;;;;;;;24.31;61.96;100872.16;5088150;28;19912;-77
2022/09/13 09:36:29;;;;;;;;;;;;;;;24.41;61.83;100876.28;5083464;28;20415;-77
2022/09/13 09:38:55;;;;;;;;;;;;;;;24.52;60.96;100880.44;5093059;28;20346;-77
2022/09/13 09:41:28;;;;;;;;;;;;;;;24.52;60.59;100885.03;5091102;28;19915;-77
2022/09/13 09:43:53;;;;;;;;;;;;;;;24.54;61.00;100883.81;5091126;28;19958;-77
2022/09/13 09:46:24;;;;;;;;;;;;;;;24.66;61.20;100881.47;5081840;28;20315;-77
2022/09/13 09:48:55;;;;;;;;;;;;;;;24.72;60.27;100872.56;5072372;28;19908;-77
2022/09/13 09:51:22;;;;;;;;;;;;;;;24.76;60.17;100875.72;5070609;28;19995;-76
2022/09/13 09:53:50;;;;;;;;;;;;;;;24.76;60.35;100873.84;5072429;28;20346;-77
2022/09/13 09:56:19;;;;;;;;;;;;;;;24.85;59.94;100874.59;5086379;28;19915;-77
2022/09/13 09:58:45;;;;;;;;;;;;;;;25.06;60.14;100876.53;5091403;28;19908;-77
2022/09/13 10:01:33;;;;;;;;;;;;;;;25.25;59.07;100875.13;5091308;28;19916;-77
2022/09/13 10:04:02;;;;;;;;;;;;;;;25.39;59.04;100874.22;5083126;28;19961;-77
2022/09/13 10:06:29;;;;;;;;;;;;;;;25.56;58.93;100877.53;5080874;28;19912;-77
2022/09/13 10:08:59;;;;;;;;;;;;;;;25.70;57.96;100873.06;5070952;28;20396;-77
2022/09/13 10:11:37;;;;;;;;;;;;;;;25.82;57.05;100874.22;5072201;28;19908;-77
2022/09/13 10:14:02;;;;;;;;;;;;;;;25.97;58.13;100875.00;5072173;28;19925;-77
2022/09/13 10:16:29;;;;;;;;;;;;;;;26.19;57.57;100870.34;5070891;28;20287;-77
2022/09/13 10:19:15;;;;;;;;;;;;;;;26.35;57.11;100873.81;5072242;28;19944;-77
2022/09/13 10:21:40;;;;;;;;;;;;;;;26.55;56.44;100866.63;5071661;28;19912;-77
2022/09/13 10:24:23;;;;;;;;;;;;;;;26.63;56.65;100871.06;5087785;28;19914;-77
2022/09/13 10:26:49;;;;;;;;;;;;;;;26.65;56.12;100869.84;5087723;28;19947;-77
2022/09/13 10:29:15;;;;;;;;;;;;;;;26.82;55.87;100864.84;5073004;28;19959;-77
2022/09/13 10:31:43;;;;;;;;;;;;;;;26.90;55.04;100875.59;5071872;28;19935;-77
2022/09/13 10:34:11;;;;;;;;;;;;;;;26.81;55.09;100874.09;5073280;28;19917;-77
2022/09/13 10:36:41;;;;;;;;;;;;;;;26.60;54.36;100875.03;5104452;28;19908;-77
2022/09/13 10:39:16;;;;;;;;;;;;;;;26.26;55.81;100875.84;5073138;28;19950;-77
2022/09/13 10:41:41;;;;;;;;;;;;;;;26.01;56.84;100878.19;5074358;28;19958;-77
2022/09/13 10:44:23;;;;;;;;;;;;;;;25.92;58.07;100866.59;5075067;28;19909;-77
2022/09/13 10:46:49;;;;;;;;;;;;;;;25.83;57.23;100865.88;5074622;28;19998;-77
2022/09/13 10:49:33;;;;;;;;;;;;;;;25.98;56.46;100873.97;5074789;28;20389;-77
2022/09/13 10:51:58;;;;;;;;;;;;;;;26.10;56.04;100868.81;5076380;28;19915;-77
2022/09/13 10:54:25;;;;;;;;;;;;;;;26.12;56.60;100861.28;5096205;28;20002;-77
2022/09/13 10:56:52;;;;;;;;;;;;;;;26.21;56.00;100859.25;5095229;28;19961;-77
2022/09/13 10:59:17;;;;;;;;;;;;;;;26.09;56.44;100855.38;5097055;28;19907;-77
2022/09/13 11:01:57;;;;;;;;;;;;;;;26.07;57.17;100854.75;5096370;28;19912;-76
2022/09/13 11:04:25;;;;;;;;;;;;;;;26.04;56.97;100850.53;5079247;28;19982;-77
2022/09/13 11:06:50;;;;;;;;;;;;;;;25.98;56.77;100848.59;5107267;28;19909;-76
2022/09/13 11:09:18;;;;;;;;;;;;;;;26.11;56.72;100848.69;5075161;28;19908;-77
2022/09/13 11:11:44;;;;;;;;;;;;;;;26.27;56.86;100840.19;5074784;28;19909;-77
2022/09/13 11:14:09;;;;;;;;;;;;;;;26.37;56.70;100837.09;5101069;28;19919;-77
2022/09/13 11:16:53;;;;;;;;;;;;;;;26.74;56.21;100840.50;5095684;28;19908;-77
2022/09/13 11:19:28;;;;;;;;;;;;;;;27.35;55.59;100832.28;5095403;28;19915;-77
2022/09/13 11:21:55;;;;;;;;;;;;;;;27.91;54.75;100827.50;5094707;28;19915;-77
2022/09/13 11:24:39;;;;;;;;;;;;;;;28.40;54.39;100821.53;5087748;28;19915;-77
2022/09/13 11:27:25;;;;;;;;;;;;;;;29.13;52.56;100817.69;5085865;28;19940;-77
2022/09/13 11:29:50;;;;;;;;;;;;;;;29.83;48.69;100821.22;5092927;28;20366;-77
2022/09/13 11:32:34;;;;;;;;;;;;;;;30.32;47.97;100835.09;5079352;28;19915;-77
2022/09/13 11:35:16;;;;;;;;;;;;;;;30.18;48.67;100833.53;5073534;28;19924;-77
2022/09/13 11:37:50;;;;;;;;;;;;;;;29.82;50.04;100835.97;5074081;28;19908;-77
2022/09/13 11:40:16;;;;;;;;;;;;;;;30.02;51.90;100830.31;5107088;28;19944;-77
2022/09/13 11:42:51;;;;;;;;;;;;;;;30.84;47.18;100827.34;5106966;28;20432;-77
2022/09/13 11:45:49;;;;;;;;;;;;;;;31.32;47.13;100822.84;5073267;28;20003;-77
2022/09/13 11:48:33;;;;;;;;;;;;;;;31.91;43.64;100829.34;5061814;28;20238;-77
2022/09/13 11:51:24;;;;;;;;;;;;;;;32.40;42.39;100831.84;5079203;28;20500;-77
2022/09/13 11:54:05;;;;;;;;;;;;;;;33.17;43.17;100818.56;5095089;28;19916;-77
2022/09/13 11:56:55;;;;;;;;;;;;;;;34.02;38.52;100825.00;5093266;28;19958;-77
2022/09/13 11:59:21;;;;;;;;;;;;;;;33.33;41.32;100813.38;5080632;28;20013;-77
2022/09/13 12:02:02;;;;;;;;;;;;;;;32.48;41.28;100821.31;5086857;28;20445;-77
2022/09/13 12:04:32;;;;;;;;;;;;;;;31.45;42.58;100826.28;5094601;28;19915;-77
2022/09/13 12:07:02;;;;;;;;;;;;;;;30.65;43.36;100820.16;5094046;28;19915;-77
2022/09/13 12:09:32;;;;;;;;;;;;;;;31.21;44.99;100822.59;5092791;28;19992;-77
2022/09/13 12:11:57;;;;;;;;;;;;;;;31.47;42.82;100819.69;5092373;28;20053;-77
2022/09/13 12:14:26;;;;;;;;;;;;;;;31.21;44.52;100816.28;5092919;28;20010;-77
2022/09/13 12:16:54;;;;;;;;;;;;;;;31.96;40.42;100820.38;5092910;28;19915;-77
2022/09/13 12:19:22;;;;;;;;;;;;;;;31.76;42.77;100813.28;5094222;28;20065;-77
2022/09/13 12:21:48;;;;;;;;;;;;;;;31.70;44.01;100811.47;5083077;28;19958;-77
2022/09/13 12:24:23;;;;;;;;;;;;;;;31.17;43.60;100809.56;5074109;28;20282;-77
2022/09/13 12:27:14;;;;;;;;;;;;;;;31.82;43.33;100811.50;5073876;28;19909;-77
2022/09/13 12:29:54;;;;;;;;;;;;;;;33.22;43.86;100799.38;5057038;28;20424;-77
2022/09/13 12:32:19;;;;;;;;;;;;;;;34.78;35.83;100805.06;5073249;28;19913;-77
2022/09/13 12:35:03;;;;;;;;;;;;;;;34.38;38.68;100807.00;5072307;28;20267;-77
2022/09/13 12:37:28;;;;;;;;;;;;;;;33.91;38.85;100796.41;5071651;28;19908;-77
2022/09/13 12:39:57;;;;;;;;;;;;;;;34.81;39.59;100802.59;5105977;28;19915;-77
2022/09/13 12:42:41;;;;;;;;;;;;;;;35.38;39.70;100794.91;5105547;28;19916;-78
2022/09/13 12:45:09;;;;;;;;;;;;;;;35.85;37.73;100799.72;5072065;28;20355;-77
2022/09/13 12:47:34;;;;;;;;;;;;;;;36.44;37.07;100805.06;5072106;28;19912;-77